Time;durP1;ratioP1;P1;durP2;ratioP2;P2;SDS_P1;SDS_P2;PMS_P1;PMS_P2;Temp;Humidity;BMP_temperature;BMP_pressure;BME280_temperature;BME280_humidity;BME280_pressure;Samples;Min_cycle;Max_cycle;Signal;HPM_P1;HPM_P2
2022/06/04 00:00:24;;;;;;;22.75;14.95;;;;;;;19.35;100.00;97869.69;5096253;28;20106;-78
2022/06/04 00:02:50;;;;;;;23.13;16.08;;;;;;;19.26;100.00;97854.25;5119414;27;20032;-78
2022/06/04 00:05:22;;;;;;;22.17;15.07;;;;;;;19.24;100.00;97855.41;5127659;27;20403;-77
2022/06/04 00:07:48;;;;;;;20.60;16.05;;;;;;;19.23;100.00;97848.25;5113946;27;20080;-78
2022/06/04 00:15:50;;;;;;;25.23;16.35;;;;;;;19.24;100.00;97839.97;5129310;27;20505;-78
2022/06/04 00:18:16;;;;;;;23.83;15.52;;;;;;;19.15;100.00;97846.25;5113693;27;20031;-77
2022/06/04 00:20:42;;;;;;;20.02;14.63;;;;;;;18.99;100.00;97826.09;5093433;28;20045;-77
2022/06/04 00:23:09;;;;;;;27.95;14.88;;;;;;;18.99;100.00;97837.81;5113953;27;20026;-78
2022/06/04 00:25:36;;;;;;;28.35;16.48;;;;;;;18.96;100.00;97846.22;5095138;28;20491;-78
2022/06/04 00:28:04;;;;;;;18.95;15.65;;;;;;;18.90;100.00;97842.22;5107476;28;20031;-78
2022/06/04 00:30:29;;;;;;;22.77;17.77;;;;;;;18.93;100.00;97841.06;5093416;28;20068;-78
2022/06/04 00:32:55;;;;;;;23.40;16.63;;;;;;;18.88;100.00;97836.09;5093158;28;20449;-78
2022/06/04 00:35:21;;;;;;;30.08;16.65;;;;;;;18.78;100.00;97829.78;5109890;27;20030;-78
2022/06/04 00:37:49;;;;;;;26.90;16.75;;;;;;;18.77;100.00;97825.34;5113092;27;20069;-78
2022/06/04 00:40:31;;;;;;;26.92;18.17;;;;;;;18.73;100.00;97823.94;5108933;27;20031;-78
2022/06/04 00:42:57;;;;;;;32.45;17.58;;;;;;;18.79;100.00;97822.50;5101576;27;20062;-78
2022/06/04 00:45:34;;;;;;;28.30;17.35;;;;;;;18.84;100.00;97831.94;5113661;27;20441;-78
2022/06/04 00:48:02;;;;;;;25.45;16.45;;;;;;;18.87;100.00;97831.66;5117207;27;20417;-78
2022/06/04 00:50:29;;;;;;;21.90;15.98;;;;;;;18.89;100.00;97826.94;5116127;27;20088;-78
2022/06/04 00:52:55;;;;;;;30.27;17.48;;;;;;;18.92;100.00;97833.94;5107856;27;20095;-78
2022/06/04 00:58:27;;;;;;;23.95;17.40;;;;;;;18.96;100.00;97838.09;5119503;27;20050;-78
2022/06/04 01:01:02;;;;;;;23.52;17.25;;;;;;;18.97;100.00;97833.53;5109817;28;20057;-78
2022/06/04 01:03:47;;;;;;;27.80;18.60;;;;;;;18.95;100.00;97839.06;5109701;27;20035;-78
2022/06/04 01:06:19;;;;;;;31.10;18.13;;;;;;;18.91;100.00;97830.38;5130183;27;20031;-78
2022/06/04 01:09:02;;;;;;;28.38;18.88;;;;;;;18.81;100.00;97829.50;5130426;27;20023;-78
2022/06/04 01:11:37;;;;;;;30.45;19.30;;;;;;;18.76;100.00;97839.06;5113956;28;20022;-78
2022/06/04 01:14:26;;;;;;;29.25;18.98;;;;;;;18.70;100.00;97820.63;5143791;27;20211;-78
2022/06/04 01:17:07;;;;;;;26.20;17.60;;;;;;;18.71;100.00;97808.78;5093419;28;20031;-78
2022/06/04 01:19:46;;;;;;;24.77;17.58;;;;;;;18.69;100.00;97811.63;5126741;28;20050;-78
2022/06/04 01:22:26;;;;;;;27.83;16.60;;;;;;;18.66;100.00;97803.78;5131759;27;20027;-78
2022/06/04 01:25:16;;;;;;;27.70;17.75;;;;;;;18.52;100.00;97806.88;5130408;27;20558;-78
2022/06/04 01:28:21;;;;;;;33.00;16.85;;;;;;;18.48;100.00;97808.13;5122707;27;20102;-77
2022/06/04 01:30:50;;;;;;;25.65;15.95;;;;;;;18.46;100.00;97803.84;5046769;28;20458;-78
2022/06/04 01:33:23;;;;;;;27.60;15.60;;;;;;;18.33;100.00;97804.06;5033000;28;20040;-78
2022/06/04 01:35:57;;;;;;;27.75;15.98;;;;;;;18.33;100.00;97802.19;5083524;27;20033;-78
2022/06/04 01:38:30;;;;;;;21.95;15.60;;;;;;;18.37;100.00;97806.38;5134259;27;20114;-78
2022/06/04 01:41:17;;;;;;;22.95;15.48;;;;;;;18.34;100.00;97811.19;5117118;27;20019;-78
2022/06/04 01:43:50;;;;;;;24.38;17.30;;;;;;;18.39;100.00;97808.94;5116430;27;20035;-78
2022/06/04 01:46:46;;;;;;;26.65;16.00;;;;;;;18.38;100.00;97807.22;5116012;27;20027;-78
2022/06/04 01:49:24;;;;;;;35.85;17.70;;;;;;;18.32;100.00;97805.06;5120926;27;20409;-77
2022/06/04 01:51:51;;;;;;;27.23;18.02;;;;;;;18.29;100.00;97797.22;5132319;27;20096;-77
2022/06/04 01:54:22;;;;;;;24.52;16.88;;;;;;;18.33;100.00;97799.50;5131396;27;20030;-78
2022/06/04 01:56:51;;;;;;;27.45;17.02;;;;;;;18.36;100.00;97811.94;5114253;27;20019;-77
2022/06/04 01:59:21;;;;;;;22.38;16.52;;;;;;;18.35;100.00;97802.94;5106080;28;20490;-77
2022/06/04 02:01:50;;;;;;;26.30;16.48;;;;;;;18.24;100.00;97799.47;5105528;27;20031;-78
2022/06/04 02:04:24;;;;;;;24.73;16.80;;;;;;;18.21;100.00;97814.13;5098074;28;20035;-78
2022/06/04 02:09:42;;;;;;;28.17;18.38;;;;;;;18.09;100.00;97801.66;5113642;28;20039;-78
2022/06/04 02:12:10;;;;;;;36.55;16.52;;;;;;;18.16;100.00;97820.94;5124340;27;20042;-78
2022/06/04 02:14:36;;;;;;;23.58;16.30;;;;;;;18.06;100.00;97811.91;5096195;28;20038;-78
2022/06/04 02:17:09;;;;;;;20.25;15.68;;;;;;;17.97;100.00;97823.53;5115133;27;20031;-78
2022/06/04 02:19:35;;;;;;;20.77;14.35;;;;;;;17.81;100.00;97813.22;5103665;28;20048;-78
2022/06/04 02:22:01;;;;;;;24.42;16.35;;;;;;;17.74;100.00;97829.13;5095798;28;20058;-78
2022/06/04 02:24:27;;;;;;;23.17;15.45;;;;;;;17.61;100.00;97824.91;5115460;27;20031;-78
2022/06/04 02:26:52;;;;;;;28.85;17.25;;;;;;;17.57;100.00;97832.41;5107323;28;20034;-78
2022/06/04 02:29:19;;;;;;;25.73;16.80;;;;;;;17.54;100.00;97832.66;5105689;27;20046;-78
2022/06/04 02:32:07;;;;;;;28.25;18.15;;;;;;;17.54;100.00;97846.16;5133473;27;20084;-78
2022/06/04 02:34:54;;;;;;;24.77;16.10;;;;;;;17.54;100.00;97848.00;5093920;27;20130;-78
2022/06/04 02:37:26;;;;;;;22.73;15.88;;;;;;;17.54;100.00;97848.88;5118704;27;20031;-79
2022/06/04 02:40:16;;;;;;;24.98;16.67;;;;;;;17.54;100.00;97859.69;5115698;27;20027;-78
2022/06/04 02:42:52;;;;;;;24.30;18.50;;;;;;;17.56;100.00;97868.59;5102398;27;20050;-78
2022/06/04 02:45:31;;;;;;;25.85;18.85;;;;;;;17.56;100.00;97879.41;5115611;27;20030;-79
2022/06/04 02:48:16;;;;;;;25.40;18.60;;;;;;;17.47;100.00;97872.03;5115140;27;20031;-78
2022/06/04 02:50:48;;;;;;;26.48;19.05;;;;;;;17.56;100.00;97875.84;5127891;27;20023;-78
2022/06/04 02:53:15;;;;;;;29.05;20.52;;;;;;;17.48;100.00;97876.44;5115653;27;20466;-79
2022/06/04 02:55:55;;;;;;;30.15;21.95;;;;;;;17.51;100.00;97881.59;5115739;27;20029;-78
2022/06/04 02:58:21;;;;;;;30.15;19.20;;;;;;;17.60;100.00;97882.69;5121502;27;20044;-79
2022/06/04 03:00:49;;;;;;;31.42;19.55;;;;;;;17.70;100.00;97883.63;5115555;27;20023;-78
2022/06/04 03:03:15;;;;;;;40.83;19.23;;;;;;;17.75;100.00;97873.25;5107162;27;20034;-79
2022/06/04 03:06:00;;;;;;;30.13;19.00;;;;;;;17.86;100.00;97876.78;5107237;27;20023;-78
2022/06/04 03:08:31;;;;;;;31.92;17.48;;;;;;;17.99;100.00;97873.03;5115156;27;20030;-79
2022/06/04 03:10:57;;;;;;;45.42;19.38;;;;;;;18.03;100.00;97882.56;5106958;27;20064;-78
2022/06/04 03:13:23;;;;;;;38.67;20.38;;;;;;;18.05;100.00;97876.06;5108423;27;20065;-79
2022/06/04 03:15:49;;;;;;;32.38;18.70;;;;;;;18.01;100.00;97863.75;5101355;28;20028;-78
2022/06/04 03:18:15;;;;;;;25.08;18.42;;;;;;;18.01;100.00;97862.91;5095921;27;20106;-78
2022/06/04 03:20:41;;;;;;;29.45;17.92;;;;;;;18.03;100.00;97869.91;5114725;27;20119;-79
2022/06/04 03:23:07;;;;;;;27.70;18.02;;;;;;;18.05;100.00;97869.78;5113853;27;20034;-79
2022/06/04 03:25:34;;;;;;;27.45;18.42;;;;;;;18.04;100.00;97877.03;5114907;27;20032;-79
2022/06/04 03:27:59;;;;;;;26.42;17.63;;;;;;;18.17;100.00;97876.84;5114924;27;20184;-79
2022/06/04 03:30:26;;;;;;;23.80;18.55;;;;;;;18.25;100.00;97871.59;5097297;28;20046;-79
2022/06/04 03:32:52;;;;;;;32.50;19.48;;;;;;;18.43;100.00;97875.38;5125775;27;20054;-79
2022/06/04 03:35:17;;;;;;;32.65;20.00;;;;;;;18.52;100.00;97869.19;5113534;27;20035;-79
2022/06/04 03:37:43;;;;;;;38.28;19.95;;;;;;;18.59;100.00;97858.66;5103545;28;20035;-79
2022/06/04 03:40:09;;;;;;;34.72;20.33;;;;;;;18.52;100.00;97850.22;5127869;27;20080;-79
2022/06/04 03:42:35;;;;;;;29.23;19.88;;;;;;;18.51;100.00;97850.38;5114554;27;20528;-76
2022/06/04 03:45:00;;;;;;;27.35;19.38;;;;;;;18.56;100.00;97837.25;5118369;27;20043;-79
2022/06/04 03:47:26;;;;;;;39.15;18.48;;;;;;;18.71;100.00;97839.44;5092249;28;20035;-78
2022/06/04 03:49:51;;;;;;;28.83;18.60;;;;;;;18.82;100.00;97831.22;5112823;27;20050;-77
2022/06/04 03:52:17;;;;;;;38.75;18.48;;;;;;;19.00;100.00;97834.09;5119989;27;20059;-77
2022/06/04 03:54:52;;;;;;;34.97;19.65;;;;;;;19.09;100.00;97827.84;5105220;27;20062;-78
2022/06/04 04:00:04;;;;;;;41.33;18.70;;;;;;;19.25;100.00;97819.16;5105596;28;20065;-78
2022/06/04 04:02:29;;;;;;;27.73;18.48;;;;;;;19.38;100.00;97819.72;5112075;27;20459;-78
2022/06/04 04:04:55;;;;;;;29.13;19.50;;;;;;;19.42;100.00;97821.16;5102126;28;20023;-77
2022/06/04 04:07:20;;;;;;;35.40;22.75;;;;;;;19.36;100.00;97816.28;5093886;28;20030;-77
2022/06/04 04:09:46;;;;;;;29.52;21.45;;;;;;;19.50;100.00;97829.47;5121429;27;20550;-78
2022/06/04 04:12:11;;;;;;;34.65;19.70;;;;;;;19.57;100.00;97830.59;5098455;28;20110;-78
2022/06/04 04:14:37;;;;;;;29.70;18.65;;;;;;;19.64;100.00;97836.31;5094109;27;20059;-79
2022/06/04 04:17:02;;;;;;;28.45;18.08;;;;;;;19.76;100.00;97841.44;5114230;27;20038;-78
2022/06/04 04:19:31;;;;;;;23.58;17.98;;;;;;;19.90;100.00;97849.13;5104313;28;20414;-78
2022/06/04 04:21:57;;;;;;;24.10;18.23;;;;;;;20.11;100.00;97842.66;5093592;28;20096;-78
2022/06/04 04:24:23;;;;;;;22.60;16.38;;;;;;;20.16;100.00;97843.06;5110443;27;20565;-78
2022/06/04 04:26:48;;;;;;;18.70;15.20;;;;;;;20.14;100.00;97845.94;5113618;27;20023;-78
2022/06/04 04:29:14;;;;;;;19.83;14.95;;;;;;;20.16;100.00;97849.34;5107147;28;20051;-78
2022/06/04 04:31:39;;;;;;;25.40;14.73;;;;;;;20.22;100.00;97864.22;5093137;28;20104;-80
2022/06/04 04:34:05;;;;;;;17.52;13.70;;;;;;;20.06;100.00;97859.38;5116167;27;20492;-78
2022/06/04 04:36:31;;;;;;;19.55;14.10;;;;;;;20.01;100.00;97867.97;5096302;28;20023;-80
2022/06/04 04:38:57;;;;;;;14.02;12.48;;;;;;;20.18;100.00;97865.53;5118694;27;20046;-80
2022/06/04 04:41:23;;;;;;;16.73;13.65;;;;;;;20.26;100.00;97873.81;5102337;28;20026;-87
2022/06/04 04:43:50;;;;;;;19.25;14.00;;;;;;;20.25;100.00;97874.78;5093482;28;20127;-81
2022/06/04 04:46:16;;;;;;;15.65;12.63;;;;;;;20.30;100.00;97880.69;5107010;27;20023;-81
2022/06/04 04:48:43;;;;;;;17.73;12.80;;;;;;;20.22;100.00;97883.22;5110585;27;20027;-80
2022/06/04 04:51:18;;;;;;;22.55;13.20;;;;;;;20.36;100.00;97890.97;5108090;28;20023;-81
2022/06/04 04:53:44;;;;;;;30.55;13.82;;;;;;;20.51;100.00;97887.63;5092914;28;20101;-81
2022/06/04 04:56:11;;;;;;;17.02;13.43;;;;;;;20.54;100.00;97881.03;5111907;27;20028;-81
2022/06/04 04:58:37;;;;;;;18.67;14.40;;;;;;;20.81;100.00;97902.81;5093636;28;20020;-81
2022/06/04 05:01:03;;;;;;;20.45;16.00;;;;;;;20.88;100.00;97895.78;5111343;28;20027;-82
2022/06/04 05:03:29;;;;;;;17.73;13.77;;;;;;;20.81;100.00;97902.81;5099845;27;20449;-80
2022/06/04 05:06:03;;;;;;;16.45;12.75;;;;;;;20.81;100.00;97894.66;5112940;28;20078;-81
2022/06/04 05:08:29;;;;;;;14.90;12.65;;;;;;;21.05;100.00;97910.41;5099833;28;20115;-81
2022/06/04 05:10:54;;;;;;;19.77;13.52;;;;;;;21.13;100.00;97915.16;5101317;28;20102;-80
2022/06/04 05:13:20;;;;;;;21.23;13.18;;;;;;;21.12;100.00;97907.97;5096813;28;20035;-80
2022/06/04 05:15:46;;;;;;;18.08;13.73;;;;;;;21.32;100.00;97904.16;5111687;28;20137;-79
2022/06/04 05:18:12;;;;;;;17.35;13.27;;;;;;;21.49;100.00;97904.16;5108891;28;20092;-81
2022/06/04 05:20:38;;;;;;;15.73;13.52;;;;;;;21.40;100.00;97907.81;5108447;28;20122;-80
2022/06/04 05:23:03;;;;;;;18.58;13.77;;;;;;;21.03;100.00;97910.59;5095195;28;20028;-81
2022/06/04 05:25:29;;;;;;;19.77;15.07;;;;;;;21.27;100.00;97920.06;5102953;28;20470;-81
2022/06/04 05:27:54;;;;;;;21.92;13.95;;;;;;;21.35;100.00;97899.22;5109548;28;20545;-81
2022/06/04 05:30:20;;;;;;;29.15;21.15;;;;;;;22.46;100.00;97918.66;5112777;28;20084;-81
2022/06/04 05:32:45;;;;;;;17.77;12.13;;;;;;;23.81;99.16;97906.00;5123564;27;20032;-80
2022/06/04 05:35:11;;;;;;;15.52;12.77;;;;;;;25.02;88.63;97912.22;5105586;28;20047;-90
2022/06/04 05:37:37;;;;;;;39.00;27.02;;;;;;;25.28;83.77;97918.31;5111923;27;20374;-91
2022/06/04 05:40:04;;;;;;;18.08;13.30;;;;;;;26.12;79.46;97924.81;5114672;28;20474;-92
2022/06/04 05:42:30;;;;;;;13.15;11.52;;;;;;;25.37;82.53;97926.47;5116987;28;20023;-91
2022/06/04 05:44:55;;;;;;;16.60;12.07;;;;;;;26.08;78.92;97915.28;5107239;28;20031;-91
2022/06/04 05:47:21;;;;;;;14.32;11.02;;;;;;;27.23;72.34;97929.44;5103115;28;20031;-91
2022/06/04 05:49:46;;;;;;;31.00;22.35;;;;;;;27.91;69.38;97911.72;5109950;28;20118;-94
2022/06/04 05:52:13;;;;;;;14.77;11.20;;;;;;;28.73;64.45;97923.16;5101140;28;20494;-80
2022/06/04 05:54:39;;;;;;;19.52;12.95;;;;;;;28.50;64.27;97931.59;5090849;28;20091;-81
2022/06/04 05:57:04;;;;;;;15.23;10.20;;;;;;;28.71;63.71;97925.22;5121302;28;20107;-81
2022/06/04 05:59:30;;;;;;;15.15;10.18;;;;;;;29.76;59.60;97921.22;5096190;28;20378;-76
2022/06/04 06:01:55;;;;;;;14.50;10.60;;;;;;;30.01;57.69;97921.53;5115314;28;20031;-78
2022/06/04 06:04:21;;;;;;;12.55;11.02;;;;;;;30.43;56.22;97915.69;5099098;28;20081;-78
2022/06/04 06:06:50;;;;;;;11.50;9.77;;;;;;;30.48;55.91;97924.22;5102559;28;20028;-78
2022/06/04 06:09:17;;;;;;;16.55;11.05;;;;;;;30.52;55.50;97925.47;5118021;28;20442;-77
2022/06/04 06:11:43;;;;;;;20.58;14.77;;;;;;;30.61;56.22;97929.72;5120028;28;20483;-77
2022/06/04 06:14:10;;;;;;;20.73;12.02;;;;;;;30.77;54.83;97924.81;5101450;28;20035;-78
2022/06/04 06:16:39;;;;;;;17.73;10.73;;;;;;;31.36;52.17;97922.84;5130039;27;20031;-79
2022/06/04 06:19:05;;;;;;;18.05;10.13;;;;;;;31.65;51.77;97925.13;5115990;27;20062;-79
2022/06/04 06:21:32;;;;;;;22.45;11.30;;;;;;;31.91;50.01;97902.00;5099506;27;20055;-78
2022/06/04 06:23:58;;;;;;;13.57;8.80;;;;;;;30.96;51.50;97921.22;5126978;27;20072;-78
2022/06/04 06:26:30;;;;;;;11.65;8.73;;;;;;;31.60;50.05;97907.47;5105670;28;20019;-78
2022/06/04 06:28:56;;;;;;;14.77;9.35;;;;;;;33.21;47.24;97907.66;5112264;27;20057;-78
2022/06/04 06:31:24;;;;;;;15.95;9.75;;;;;;;34.04;44.79;97893.19;5113034;27;20483;-78
2022/06/04 06:33:49;;;;;;;19.35;10.77;;;;;;;34.83;43.73;97895.63;5110750;27;20478;-78
2022/06/04 06:36:17;;;;;;;21.95;14.13;;;;;;;35.49;42.19;97881.34;5098717;28;20042;-78
2022/06/04 06:38:45;;;;;;;15.65;8.07;;;;;;;35.98;40.92;97877.13;5095497;28;20128;-78
2022/06/04 06:41:13;;;;;;;20.27;8.05;;;;;;;36.34;40.19;97876.72;5122162;27;20028;-79
2022/06/04 06:43:39;;;;;;;15.38;6.80;;;;;;;36.49;39.20;97873.34;5115969;27;20073;-79
2022/06/04 06:46:10;;;;;;;12.57;8.32;;;;;;;35.83;40.18;97874.03;5108925;28;20031;-78
2022/06/04 06:48:36;;;;;;;;;;;;;;;36.42;39.76;97875.47;5108046;27;20099;-78
2022/06/04 06:51:30;;;;;;;10.18;7.35;;;;;;;37.02;38.54;97872.91;5109631;28;19994;-78
2022/06/04 06:53:55;;;;;;;16.13;7.47;;;;;;;35.16;41.34;97876.41;5098966;27;20471;-78
2022/06/04 06:56:24;;;;;;;15.60;7.90;;;;;;;35.11;41.60;97875.47;5112788;27;20046;-79
2022/06/04 06:58:50;;;;;;;10.65;7.13;;;;;;;35.23;41.33;97871.59;5102636;28;20478;-78
2022/06/04 07:01:16;;;;;;;13.98;7.70;;;;;;;33.66;43.51;97868.50;5113298;27;20027;-77
2022/06/04 07:03:42;;;;;;;18.20;8.10;;;;;;;32.82;45.58;97865.59;5105870;27;20027;-79
2022/06/04 07:06:10;;;;;;;19.13;7.07;;;;;;;33.27;45.76;97867.06;5099081;28;20406;-79
2022/06/04 07:08:37;;;;;;;16.58;7.53;;;;;;;34.90;42.26;97856.56;5095259;28;20038;-78
2022/06/04 07:11:03;;;;;;;15.38;7.35;;;;;;;35.85;40.70;97830.91;5110810;27;20027;-78
2022/06/04 07:13:28;;;;;;;10.30;6.43;;;;;;;36.56;39.57;97837.81;5113626;27;20478;-78
2022/06/04 07:15:54;;;;;;;10.63;6.70;;;;;;;37.13;37.87;97830.06;5117978;27;20080;-78
2022/06/04 07:18:19;;;;;;;11.57;7.10;;;;;;;37.73;37.50;97827.28;5111264;27;20058;-78
2022/06/04 07:20:46;;;;;;;23.20;8.07;;;;;;;37.99;36.65;97829.28;5103396;28;20038;-78
2022/06/04 07:23:12;;;;;;;30.10;9.50;;;;;;;37.07;37.87;97822.75;5094864;28;20031;-78
2022/06/04 07:25:41;;;;;;;13.07;6.93;;;;;;;35.71;39.35;97832.31;5111660;28;20406;-78
2022/06/04 07:28:08;;;;;;;12.65;6.25;;;;;;;35.03;40.72;97842.44;5111076;27;20474;-77
2022/06/04 07:30:33;;;;;;;16.67;7.82;;;;;;;34.38;42.20;97836.94;5114945;27;20038;-78
2022/06/04 07:32:59;;;;;;;13.25;7.45;;;;;;;33.67;43.79;97832.22;5126045;27;20032;-78
2022/06/04 07:35:24;;;;;;;11.45;8.02;;;;;;;32.97;45.58;97833.66;5111425;27;20077;-78
2022/06/04 07:37:50;;;;;;;20.10;7.88;;;;;;;32.29;48.16;97846.63;5114945;27;20023;-78
2022/06/04 07:40:16;;;;;;;18.50;8.15;;;;;;;33.09;47.07;97836.53;5098148;28;20479;-78
2022/06/04 07:42:42;;;;;;;26.10;8.20;;;;;;;33.19;47.15;97832.13;5113324;27;20023;-78
2022/06/04 07:45:08;;;;;;;16.02;7.65;;;;;;;33.52;45.87;97826.19;5114845;27;20058;-78
2022/06/04 07:47:34;;;;;;;19.20;7.43;;;;;;;34.15;44.38;97817.41;5114512;27;20118;-77
2022/06/04 07:50:00;;;;;;;44.08;8.73;;;;;;;35.01;42.93;97825.97;5103196;28;20110;-78
2022/06/04 07:52:25;;;;;;;16.45;7.90;;;;;;;34.63;43.47;97815.38;5127506;27;20037;-78
2022/06/04 07:54:51;;;;;;;14.05;7.63;;;;;;;35.42;42.42;97811.03;5103179;27;20027;-78
2022/06/04 07:57:16;;;;;;;12.43;7.63;;;;;;;34.03;43.78;97816.50;5109214;27;20470;-78
2022/06/04 07:59:42;;;;;;;11.07;7.40;;;;;;;34.33;43.91;97823.72;5112804;27;20027;-77
2022/06/04 08:02:09;;;;;;;15.13;7.95;;;;;;;34.42;44.20;97824.25;5102735;28;20038;-78
2022/06/04 08:04:35;;;;;;;14.25;7.32;;;;;;;34.10;44.37;97817.28;5112138;27;20083;-78
2022/06/04 08:07:02;;;;;;;13.63;7.43;;;;;;;33.59;45.36;97823.34;5095714;28;20027;-78
2022/06/04 08:09:28;;;;;;;25.02;8.30;;;;;;;32.55;48.86;97840.00;5103125;27;20019;-78
2022/06/04 08:11:53;;;;;;;21.90;7.85;;;;;;;32.97;47.33;97830.03;5101436;28;20559;-77
2022/06/04 08:14:21;;;;;;;24.05;8.00;;;;;;;32.86;48.01;97841.84;5119497;27;20019;-77
2022/06/04 08:16:59;;;;;;;10.30;7.30;;;;;;;32.44;50.19;97843.50;5111684;27;20019;-77
2022/06/04 08:19:28;;;;;;;22.42;8.32;;;;;;;32.54;50.11;97833.63;5103296;28;20051;-78
2022/06/04 08:21:55;;;;;;;14.48;8.13;;;;;;;32.98;48.50;97823.41;5105312;27;20432;-77
2022/06/04 08:24:22;;;;;;;11.23;7.18;;;;;;;32.54;49.04;97828.09;5106534;28;20041;-77
2022/06/04 08:26:53;;;;;;;15.40;7.32;;;;;;;31.86;50.55;97834.53;5113213;27;20452;-79
2022/06/04 08:29:19;;;;;;;12.10;6.95;;;;;;;32.60;50.42;97837.44;5107648;27;20023;-78
2022/06/04 08:31:45;;;;;;;11.13;6.82;;;;;;;32.90;49.55;97818.16;5098747;28;20031;-78
2022/06/04 08:34:11;;;;;;;12.15;6.82;;;;;;;32.32;50.41;97818.47;5093615;28;20081;-79
2022/06/04 08:36:37;;;;;;;9.15;6.72;;;;;;;32.69;49.43;97822.22;5128824;27;20031;-77
2022/06/04 08:39:03;;;;;;;12.27;6.93;;;;;;;32.23;50.13;97814.28;5113764;27;20027;-78
2022/06/04 08:41:50;;;;;;;16.30;7.03;;;;;;;32.97;48.66;97807.84;5113506;27;20132;-78
2022/06/04 08:44:32;;;;;;;12.80;6.55;;;;;;;34.58;45.63;97806.03;5125787;27;20118;-78
2022/06/04 08:47:02;;;;;;;12.60;6.07;;;;;;;35.87;43.57;97794.44;5101987;28;20160;-78
2022/06/04 08:49:34;;;;;;;8.90;6.63;;;;;;;36.00;41.72;97780.19;5101807;28;20065;-78
2022/06/04 08:52:02;;;;;;;18.58;8.45;;;;;;;36.54;39.67;97769.47;5112531;28;20030;-78
2022/06/04 08:57:32;;;;;;;10.32;6.00;;;;;;;39.30;35.32;97755.94;5102717;28;20407;-78
2022/06/04 09:00:35;;;;;;;8.10;5.93;;;;;;;40.15;32.82;97741.34;5095406;28;20059;-79
2022/06/04 09:03:12;;;;;;;10.27;6.03;;;;;;;40.07;33.90;97751.16;5109795;28;20493;-78
2022/06/04 09:05:47;;;;;;;13.27;6.78;;;;;;;38.30;36.59;97752.13;5109278;28;20110;-78
2022/06/04 09:08:18;;;;;;;12.43;5.53;;;;;;;38.42;36.32;97741.63;5118213;27;20062;-78
2022/06/04 09:10:50;;;;;;;17.45;7.68;;;;;;;37.94;38.15;97747.34;5101457;28;20108;-78
2022/06/04 09:13:41;;;;;;;11.77;6.63;;;;;;;36.78;39.71;97754.22;5093232;28;20041;-78
2022/06/04 09:16:29;;;;;;;17.50;5.93;;;;;;;37.06;39.18;97750.44;5093429;28;20035;-78
2022/06/04 09:19:00;;;;;;;8.18;5.40;;;;;;;36.04;39.39;97745.16;5115647;28;20077;-77
2022/06/04 09:21:36;;;;;;;;;;;;;;;35.76;40.16;97748.84;5107079;28;20069;-77
2022/06/04 09:24:01;;;;;;;12.23;6.93;;;;;;;36.39;39.99;97744.97;5103184;28;20331;-77
2022/06/04 09:26:35;;;;;;;11.02;5.20;;;;;;;36.89;38.79;97740.16;5112985;28;20115;-78
2022/06/04 09:29:01;;;;;;;15.30;6.07;;;;;;;36.83;39.02;97743.97;5097597;28;20024;-77
2022/06/04 09:31:51;;;;;;;11.07;6.10;;;;;;;37.00;38.39;97735.59;5110696;28;20482;-77
2022/06/04 09:34:24;;;;;;;16.20;5.82;;;;;;;37.51;37.06;97725.91;5117955;27;20023;-78
2022/06/04 09:36:51;;;;;;;12.23;5.80;;;;;;;38.27;36.20;97729.47;5118178;28;20139;-78
2022/06/04 09:39:31;;;;;;;20.52;5.75;;;;;;;38.20;36.73;97728.84;5126344;28;20027;-78
2022/06/04 09:42:05;;;;;;;8.88;5.25;;;;;;;39.29;34.80;97729.91;5101255;28;20034;-78
2022/06/04 09:44:35;;;;;;;14.93;4.93;;;;;;;39.84;33.25;97720.81;5112031;28;20573;-79
2022/06/04 09:47:10;;;;;;;11.60;5.18;;;;;;;41.31;31.46;97720.72;5106360;28;20040;-75
2022/06/04 09:49:42;;;;;;;14.07;9.90;;;;;;;40.63;32.09;97717.53;5129804;27;20027;-79
2022/06/04 09:52:26;;;;;;;13.02;8.25;;;;;;;41.51;30.77;97713.03;5110212;27;20423;-79
2022/06/04 09:54:59;;;;;;;18.17;10.48;;;;;;;41.85;29.88;97715.97;5114011;27;20023;-80
2022/06/04 09:57:27;;;;;;;16.00;4.68;;;;;;;42.67;28.59;97711.41;5102896;28;20055;-79
2022/06/04 09:59:55;;;;;;;7.80;4.90;;;;;;;44.18;27.05;97698.16;5106114;27;20027;-79
2022/06/04 10:02:20;;;;;;;8.80;4.60;;;;;;;43.11;27.51;97678.22;5109595;27;20096;-78
2022/06/04 10:04:49;;;;;;;7.82;4.90;;;;;;;43.04;28.75;97702.28;5116794;27;20019;-79
2022/06/04 10:07:28;;;;;;;10.10;4.90;;;;;;;43.09;28.78;97696.56;5116156;27;20107;-79
2022/06/04 10:09:56;;;;;;;13.45;4.85;;;;;;;41.94;29.49;97688.06;5098978;28;20093;-79
2022/06/04 10:15:17;;;;;;;8.70;4.57;;;;;;;41.73;29.02;97689.31;5131915;27;20047;-76
2022/06/04 10:17:43;;;;;;;11.02;5.07;;;;;;;39.89;30.69;97684.41;5096463;28;20027;-77
2022/06/04 10:20:23;;;;;;;12.65;5.40;;;;;;;41.26;29.68;97678.59;5097333;28;20048;-77
2022/06/04 10:22:50;;;;;;;8.60;4.72;;;;;;;42.12;28.63;97665.69;5113065;27;20026;-77
2022/06/04 10:25:22;;;;;;;10.68;4.97;;;;;;;43.34;26.79;97670.06;5106606;27;20417;-77
2022/06/04 10:27:58;;;;;;;12.43;4.80;;;;;;;43.74;26.64;97675.13;5110084;28;20069;-77
2022/06/04 10:30:33;;;;;;;8.77;4.57;;;;;;;43.11;27.63;97669.78;5116662;27;20130;-77
2022/06/04 10:33:14;;;;;;;11.57;5.30;;;;;;;44.00;27.10;97667.97;5109290;27;20141;-77
2022/06/04 10:36:01;;;;;;;;;;;;;;;44.96;25.76;97657.81;5108591;27;20030;-77
2022/06/04 10:38:38;;;;;;;8.10;4.60;;;;;;;44.45;26.39;97655.09;5111981;28;19912;-77
2022/06/04 10:41:19;;;;;;;8.18;5.28;;;;;;;44.03;25.97;97644.78;5114007;27;20068;-77
2022/06/04 10:44:18;;;;;;;8.65;4.93;;;;;;;43.47;26.63;97627.06;5124720;27;20030;-78
2022/06/04 10:47:03;;;;;;;11.20;4.88;;;;;;;43.11;27.34;97629.50;5127884;27;20023;-77
2022/06/04 10:49:47;;;;;;;13.13;5.10;;;;;;;43.10;27.03;97628.66;5111798;28;20077;-77
2022/06/04 10:52:19;;;;;;;10.50;5.35;;;;;;;42.68;27.78;97628.59;5122787;27;20027;-77
2022/06/04 10:55:15;;;;;;;10.85;5.05;;;;;;;43.64;26.70;97628.19;5119541;27;20104;-77
2022/06/04 10:57:43;;;;;;;6.72;5.10;;;;;;;40.69;30.03;97629.38;5104112;28;20023;-77
2022/06/04 11:00:22;;;;;;;15.00;4.95;;;;;;;40.77;29.89;97619.53;5129425;27;20054;-77
2022/06/04 11:03:04;;;;;;;8.50;5.00;;;;;;;39.40;31.22;97613.16;5088904;28;20027;-76
2022/06/04 11:05:40;;;;;;;12.48;4.65;;;;;;;37.84;33.31;97616.72;5115069;27;20110;-76
2022/06/04 11:08:13;;;;;;;12.30;5.57;;;;;;;36.93;34.42;97623.28;5099477;28;20490;-76
2022/06/04 11:10:59;;;;;;;10.45;5.10;;;;;;;35.75;36.88;97632.13;5108128;27;20024;-76
2022/06/04 11:13:36;;;;;;;9.38;5.78;;;;;;;36.03;38.37;97634.81;5105347;27;20041;-76
2022/06/04 11:16:12;;;;;;;8.43;5.05;;;;;;;37.19;35.42;97630.06;5095040;28;20035;-77
2022/06/04 11:19:00;;;;;;;10.43;5.25;;;;;;;38.55;34.78;97625.66;5128892;27;20034;-77
2022/06/04 11:21:37;;;;;;;15.57;5.72;;;;;;;38.79;33.15;97614.91;5094495;28;20096;-78
2022/06/04 11:24:09;;;;;;;10.48;5.45;;;;;;;38.46;34.66;97621.69;5110351;27;20511;-77
2022/06/04 11:26:40;;;;;;;11.13;4.85;;;;;;;38.14;34.92;97620.91;5112474;27;20073;-77
2022/06/04 11:29:06;;;;;;;;;;;;;;;38.86;33.45;97610.72;5095214;28;20099;-77
2022/06/04 11:31:37;;;;;;;6.30;5.13;;;;;;;37.98;34.17;97614.38;5105261;27;19912;-77
2022/06/04 11:34:43;;;;;;;7.43;5.07;;;;;;;38.13;33.43;97596.84;5125883;27;20448;-77
2022/06/04 11:37:14;;;;;;;15.55;5.22;;;;;;;38.37;34.08;97612.13;5107133;28;20031;-77
2022/06/04 11:40:01;;;;;;;9.65;5.32;;;;;;;39.21;31.31;97600.75;5124335;27;20011;-78
2022/06/04 11:42:51;;;;;;;12.65;4.78;;;;;;;39.63;31.29;97601.41;5131786;27;20105;-77
2022/06/04 11:45:47;;;;;;;14.50;4.38;;;;;;;41.61;29.54;97602.53;5115946;27;20039;-78
2022/06/04 11:48:34;;;;;;;8.98;5.03;;;;;;;42.36;28.63;97597.41;5094926;28;20062;-77
2022/06/04 11:51:14;;;;;;;13.30;4.22;;;;;;;42.23;29.50;97606.56;5118116;27;20031;-78
2022/06/04 11:54:04;;;;;;;7.32;4.65;;;;;;;41.84;30.60;97615.88;5123181;27;20484;-78
2022/06/04 11:56:48;;;;;;;10.75;4.93;;;;;;;40.76;31.85;97613.09;5123128;27;20084;-78